createdAt,value
2019-01-17T00:00:16.925Z,7.80
2019-01-17T00:02:48.980Z,6.90
2019-01-17T00:05:18.103Z,7.77
2019-01-17T00:07:53.553Z,7.90
2019-01-17T00:10:25.829Z,5.97
2019-01-17T00:13:11.651Z,6.93
2019-01-17T00:15:47.029Z,6.90
2019-01-17T00:18:16.505Z,6.77
2019-01-17T00:20:48.440Z,6.77
2019-01-17T00:23:30.054Z,6.00
2019-01-17T00:26:14.280Z,6.67
2019-01-17T00:28:43.441Z,7.37
2019-01-17T00:31:18.836Z,7.70
2019-01-17T00:33:50.468Z,6.53
2019-01-17T00:36:25.386Z,6.73
2019-01-17T00:38:54.612Z,6.53
2019-01-17T00:41:26.915Z,6.30
2019-01-17T00:43:58.783Z,7.50
2019-01-17T00:46:28.342Z,7.67
2019-01-17T00:48:57.842Z,6.97
2019-01-17T00:51:29.961Z,6.93
2019-01-17T00:54:15.676Z,6.90
2019-01-17T00:57:01.963Z,7.47
2019-01-17T00:59:37.234Z,6.93
2019-01-17T01:02:25.318Z,7.58
2019-01-17T01:04:54.567Z,6.87
2019-01-17T01:07:39.798Z,7.57
2019-01-17T01:10:22.850Z,7.63
2019-01-17T01:12:58.044Z,7.53
2019-01-17T01:15:42.473Z,7.23
2019-01-17T01:18:26.757Z,6.93
2019-01-17T01:21:02.153Z,7.20
2019-01-17T01:23:31.383Z,8.17
2019-01-17T01:26:06.280Z,6.97
2019-01-17T01:28:41.706Z,6.97
2019-01-17T01:31:11.342Z,6.50
2019-01-17T01:33:40.504Z,6.90
2019-01-17T01:36:21.857Z,8.37
2019-01-17T01:38:51.038Z,8.77
2019-01-17T01:41:20.172Z,7.93
2019-01-17T01:43:55.968Z,7.07
2019-01-17T01:46:28.089Z,7.77
2019-01-17T01:48:57.261Z,6.97
2019-01-17T01:51:38.681Z,7.27
2019-01-17T01:54:06.227Z,7.43
2019-01-17T01:56:33.783Z,6.80
2019-01-17T01:59:01.821Z,7.30
2019-01-17T02:01:29.435Z,6.93
2019-01-17T02:03:57.010Z,7.13
2019-01-17T02:06:24.643Z,7.93
2019-01-17T02:08:52.658Z,7.33
2019-01-17T02:11:20.298Z,6.73
2019-01-17T02:13:48.272Z,6.60
2019-01-17T02:16:15.914Z,6.93
2019-01-17T02:18:43.921Z,7.13
2019-01-17T02:21:11.605Z,6.63
2019-01-17T02:23:39.311Z,7.40
2019-01-17T02:26:06.929Z,7.10
2019-01-17T02:28:34.949Z,6.80
2019-01-17T02:31:02.527Z,6.50
2019-01-17T02:33:30.120Z,7.23
2019-01-17T02:35:57.713Z,6.03
2019-01-17T02:38:25.715Z,6.80
2019-01-17T02:40:53.745Z,7.43
2019-01-17T02:43:21.743Z,7.40
2019-01-17T02:45:49.335Z,7.10
2019-01-17T02:48:16.905Z,7.07
2019-01-17T02:50:44.837Z,6.20
2019-01-17T02:53:12.482Z,6.03
2019-01-17T02:55:40.088Z,6.33
2019-01-17T02:58:07.660Z,7.20
2019-01-17T03:00:35.282Z,7.13
2019-01-17T03:03:03.226Z,6.07
2019-01-17T03:05:30.801Z,6.60
2019-01-17T03:07:58.433Z,7.10
2019-01-17T03:10:26.100Z,6.50
2019-01-17T03:12:53.684Z,6.33
2019-01-17T03:15:21.280Z,6.27
2019-01-17T03:17:48.893Z,5.63
2019-01-17T03:20:16.840Z,6.70
2019-01-17T03:22:44.805Z,6.30
2019-01-17T03:25:12.361Z,5.67
2019-01-17T03:27:40.258Z,6.40
2019-01-17T03:30:09.394Z,5.90
2019-01-17T03:32:37.270Z,6.47
2019-01-17T03:35:05.118Z,6.30
2019-01-17T03:37:32.656Z,5.10
2019-01-17T03:40:00.629Z,5.53
2019-01-17T03:42:28.288Z,5.80
2019-01-17T03:44:56.227Z,6.17
2019-01-17T03:47:23.901Z,6.63
2019-01-17T03:49:51.480Z,5.20
2019-01-17T03:52:19.592Z,6.03
2019-01-17T03:54:52.035Z,5.10
2019-01-17T03:57:16.424Z,6.07
2019-01-17T03:59:44.039Z,5.10
2019-01-17T04:02:11.667Z,6.60
2019-01-17T04:04:39.206Z,5.57
2019-01-17T04:07:07.299Z,5.07
2019-01-17T04:09:35.288Z,5.00
2019-01-17T04:12:02.902Z,5.53
2019-01-17T04:14:30.536Z,4.57
2019-01-17T04:16:58.565Z,5.40
2019-01-17T04:19:26.508Z,5.07
2019-01-17T04:21:54.059Z,5.17
2019-01-17T04:24:21.709Z,5.80
2019-01-17T04:26:49.725Z,4.93
2019-01-17T04:29:17.267Z,5.70
2019-01-17T04:31:44.971Z,6.00
2019-01-17T04:34:12.577Z,4.83
2019-01-17T04:36:40.108Z,5.97
2019-01-17T04:39:08.147Z,5.20
2019-01-17T04:41:35.696Z,5.70
2019-01-17T04:44:03.361Z,6.20
2019-01-17T04:46:31.433Z,5.70
2019-01-17T04:48:59.529Z,5.50
2019-01-17T04:51:27.359Z,5.33
2019-01-17T04:53:56.821Z,5.30
2019-01-17T04:56:24.406Z,4.80
2019-01-17T04:58:52.290Z,5.13
2019-01-17T05:01:19.840Z,6.50
2019-01-17T05:03:47.439Z,4.87
2019-01-17T05:06:15.477Z,5.57
2019-01-17T05:08:43.112Z,5.13
2019-01-17T05:11:11.140Z,5.10
2019-01-17T05:13:38.683Z,5.27
2019-01-17T05:16:06.359Z,5.80
2019-01-17T05:18:34.403Z,5.50
2019-01-17T05:21:02.377Z,8.30
2019-01-17T05:23:29.946Z,6.07
2019-01-17T05:25:57.983Z,6.17
2019-01-17T05:28:25.569Z,6.20
2019-01-17T05:30:53.639Z,5.73
2019-01-17T05:33:21.259Z,5.63
2019-01-17T05:35:48.878Z,9.50
2019-01-17T05:38:16.854Z,6.97
2019-01-17T05:40:44.458Z,5.90
2019-01-17T05:43:12.513Z,6.17
2019-01-17T05:45:40.218Z,25.33
2019-01-17T05:48:07.764Z,9.90
2019-01-17T05:50:35.702Z,8.67
2019-01-17T05:53:03.651Z,202.13
2019-01-17T05:55:31.589Z,7.83
2019-01-17T05:57:59.214Z,6.33
2019-01-17T06:00:26.853Z,6.47
2019-01-17T06:02:54.715Z,7.27
2019-01-17T06:05:22.576Z,6.27
2019-01-17T06:07:51.240Z,7.43
2019-01-17T06:10:18.789Z,6.60
2019-01-17T06:12:46.710Z,5.47
2019-01-17T06:15:16.043Z,6.63
2019-01-17T06:17:44.057Z,5.77
2019-01-17T06:20:13.360Z,7.23
2019-01-17T06:22:40.949Z,6.83
2019-01-17T06:25:08.533Z,5.60
2019-01-17T06:27:36.225Z,4.93
2019-01-17T06:30:05.610Z,7.30
2019-01-17T06:32:33.667Z,6.47
2019-01-17T06:35:01.510Z,5.50
2019-01-17T06:37:29.086Z,6.17
2019-01-17T06:39:57.064Z,5.33
2019-01-17T06:42:25.104Z,4.80
2019-01-17T06:44:53.137Z,5.30
2019-01-17T06:47:20.864Z,4.70
2019-01-17T06:49:48.440Z,5.17
2019-01-17T06:52:16.049Z,5.67
2019-01-17T06:54:43.741Z,6.20
2019-01-17T06:57:11.497Z,6.00
2019-01-17T06:59:39.418Z,5.67
2019-01-17T07:02:07.363Z,5.57
2019-01-17T07:04:34.974Z,3.27
2019-01-17T07:07:02.508Z,6.50
2019-01-17T07:09:30.149Z,5.43
2019-01-17T07:11:57.725Z,5.73
2019-01-17T07:14:25.741Z,5.90
2019-01-17T07:16:53.398Z,6.37
2019-01-17T07:19:20.937Z,5.57
2019-01-17T07:21:48.492Z,6.70
2019-01-17T07:24:16.246Z,4.80
2019-01-17T07:26:43.780Z,4.60
2019-01-17T07:29:11.341Z,5.13
2019-01-17T07:31:39.005Z,6.27
2019-01-17T07:34:06.548Z,6.27
2019-01-17T07:36:34.622Z,6.90
2019-01-17T07:39:02.640Z,9.53
2019-01-17T07:41:30.189Z,4.47
2019-01-17T07:43:57.787Z,7.47
2019-01-17T07:46:25.347Z,6.50
2019-01-17T07:48:52.943Z,22.40
2019-01-17T07:51:20.560Z,6.40
2019-01-17T07:53:48.145Z,7.30
2019-01-17T07:56:16.047Z,3.70
2019-01-17T07:58:43.660Z,5.37
2019-01-17T08:01:14.962Z,6.53
2019-01-17T08:03:40.513Z,7.30
2019-01-17T08:06:08.138Z,7.30
2019-01-17T08:08:35.721Z,7.97
2019-01-17T08:11:03.707Z,8.93
2019-01-17T08:13:31.422Z,6.77
2019-01-17T08:15:58.960Z,13.03
2019-01-17T08:18:26.992Z,6.77
2019-01-17T08:20:54.681Z,8.47
2019-01-17T08:23:22.743Z,7.20
2019-01-17T08:25:54.212Z,7.33
2019-01-17T08:28:20.221Z,7.10
2019-01-17T08:30:47.772Z,8.13
2019-01-17T08:33:15.365Z,6.60
2019-01-17T08:35:42.972Z,7.80
2019-01-17T08:38:10.512Z,8.40
2019-01-17T08:40:38.830Z,7.70
2019-01-17T08:43:06.427Z,8.33
2019-01-17T08:45:34.050Z,7.10
2019-01-17T08:48:01.645Z,7.87
2019-01-17T08:50:29.603Z,9.97
2019-01-17T08:52:57.148Z,8.70
2019-01-17T08:55:25.140Z,9.43
2019-01-17T08:57:52.697Z,9.00
2019-01-17T09:00:21.859Z,9.30
2019-01-17T09:02:49.503Z,8.97
2019-01-17T09:05:17.132Z,10.37
2019-01-17T09:07:44.704Z,9.27
2019-01-17T09:10:14.241Z,8.13
2019-01-17T09:12:42.129Z,9.47
2019-01-17T09:15:11.268Z,8.70
2019-01-17T09:17:39.314Z,8.37
2019-01-17T09:20:08.482Z,8.87
2019-01-17T09:22:36.080Z,9.90
2019-01-17T09:25:04.342Z,8.00
2019-01-17T09:27:31.943Z,10.80
2019-01-17T09:29:59.481Z,9.50
2019-01-17T09:32:27.221Z,8.07
2019-01-17T09:34:55.233Z,6.83
2019-01-17T09:37:22.779Z,8.30
2019-01-17T09:39:50.805Z,8.20
2019-01-17T09:42:18.782Z,11.03
2019-01-17T09:44:46.716Z,8.70
2019-01-17T09:47:14.817Z,9.23
2019-01-17T09:49:42.385Z,9.80
2019-01-17T09:52:10.054Z,9.67
2019-01-17T09:54:37.704Z,9.67
2019-01-17T09:57:05.740Z,9.30
2019-01-17T09:59:33.600Z,6.37
2019-01-17T10:02:02.143Z,9.43
2019-01-17T10:04:29.733Z,9.73
2019-01-17T10:06:57.648Z,8.23
2019-01-17T10:09:25.480Z,8.90
2019-01-17T10:11:53.137Z,7.07
2019-01-17T10:14:20.767Z,6.90
2019-01-17T10:16:49.817Z,8.77
2019-01-17T10:19:18.920Z,7.40
2019-01-17T10:22:00.814Z,3.83
2019-01-17T10:24:46.512Z,7.23
2019-01-17T10:27:18.741Z,7.17
2019-01-17T10:29:47.877Z,5.33
2019-01-17T10:32:23.150Z,6.33
2019-01-17T10:34:55.533Z,5.50
2019-01-17T10:37:25.121Z,7.93
2019-01-17T10:40:03.569Z,4.33
2019-01-17T10:42:44.795Z,5.37
2019-01-17T10:45:13.993Z,4.33
2019-01-17T10:48:00.382Z,7.60
2019-01-17T10:50:33.155Z,10.23
2019-01-17T10:53:02.721Z,3.07
2019-01-17T10:55:43.936Z,7.00
2019-01-17T10:58:16.038Z,4.63
2019-01-17T11:00:47.839Z,6.27
2019-01-17T11:03:29.541Z,3.90
2019-01-17T11:06:05.076Z,6.50
2019-01-17T11:08:46.663Z,5.63
2019-01-17T11:11:25.506Z,6.37
2019-01-17T11:13:57.957Z,7.23
2019-01-17T11:16:27.100Z,8.63
2019-01-17T11:18:59.624Z,8.90
2019-01-17T11:21:29.108Z,9.93
2019-01-17T11:23:58.308Z,9.60
2019-01-17T11:26:34.497Z,9.53
2019-01-17T11:29:10.294Z,8.30
2019-01-17T11:31:39.926Z,9.47
2019-01-17T11:34:14.903Z,6.53
2019-01-17T11:36:46.834Z,8.57
2019-01-17T11:39:18.910Z,7.50
2019-01-17T11:41:51.381Z,14.43
2019-01-17T11:44:29.765Z,11.93
2019-01-17T11:47:05.126Z,40.10
2019-01-17T11:49:49.398Z,19.50
2019-01-17T11:52:21.509Z,31.63
2019-01-17T11:55:07.292Z,30.07
2019-01-17T11:57:36.694Z,23.00
2019-01-17T12:00:12.852Z,15.63
2019-01-17T12:02:54.272Z,39.73
2019-01-17T12:05:21.930Z,14.33
2019-01-17T12:07:49.951Z,10.80
2019-01-17T12:10:17.989Z,11.97
2019-01-17T12:12:46.458Z,11.57
2019-01-17T12:15:14.115Z,20.67
2019-01-17T12:17:41.717Z,17.97
2019-01-17T12:20:09.360Z,28.57
2019-01-17T12:22:37.635Z,24.30
2019-01-17T12:25:05.651Z,47.33
2019-01-17T12:27:33.188Z,20.63
2019-01-17T12:30:00.833Z,71.30
2019-01-17T12:32:28.890Z,26.23
2019-01-17T12:34:56.447Z,82.40
2019-01-17T12:37:24.104Z,33.30
2019-01-17T12:39:52.085Z,44.80
2019-01-17T12:42:19.693Z,25.93
2019-01-17T12:44:47.355Z,42.03
2019-01-17T12:47:15.382Z,15.50
2019-01-17T12:49:43.377Z,37.70
2019-01-17T12:52:11.364Z,17.27
2019-01-17T12:54:38.952Z,17.53
2019-01-17T12:57:06.645Z,102.53
2019-01-17T12:59:34.230Z,36.17
2019-01-17T13:02:02.290Z,31.50
2019-01-17T13:04:30.354Z,25.10
2019-01-17T13:06:58.472Z,37.73
2019-01-17T13:09:26.029Z,34.53
2019-01-17T13:11:54.054Z,26.27
2019-01-17T13:14:21.636Z,9.13
2019-01-17T13:16:49.707Z,20.00
2019-01-17T13:19:17.732Z,18.70
2019-01-17T13:21:45.311Z,11.03
2019-01-17T13:24:13.157Z,10.03
2019-01-17T13:26:40.914Z,13.27
2019-01-17T13:29:08.556Z,9.47
2019-01-17T13:31:36.623Z,18.00
2019-01-17T13:34:05.817Z,11.40
2019-01-17T13:36:33.384Z,15.90
2019-01-17T13:39:00.997Z,8.77
2019-01-17T13:41:28.634Z,10.07
2019-01-17T13:43:56.593Z,8.63
2019-01-17T13:46:24.381Z,11.03
2019-01-17T13:48:52.129Z,10.40
2019-01-17T13:51:19.734Z,9.37
2019-01-17T13:53:47.862Z,10.67
2019-01-17T13:56:15.449Z,10.27
2019-01-17T13:58:43.062Z,11.80
2019-01-17T14:01:10.979Z,12.83
2019-01-17T14:03:38.584Z,26.10
2019-01-17T14:06:06.179Z,14.97
2019-01-17T14:08:34.449Z,24.37
2019-01-17T14:11:02.379Z,10.97
2019-01-17T14:13:29.966Z,13.73
2019-01-17T14:15:57.608Z,12.87
2019-01-17T14:18:27.983Z,20.67
2019-01-17T14:20:54.561Z,11.43
2019-01-17T14:23:22.364Z,15.80
2019-01-17T14:25:50.317Z,17.80
2019-01-17T14:28:17.920Z,13.57
2019-01-17T14:30:46.013Z,56.10
2019-01-17T14:33:13.612Z,164.90
2019-01-17T14:35:41.254Z,46.40
2019-01-17T14:38:08.919Z,292.53
2019-01-17T14:40:36.870Z,459.20
2019-01-17T14:43:04.512Z,656.07
2019-01-17T14:45:32.301Z,636.63
2019-01-17T14:47:59.955Z,440.60
2019-01-17T14:50:28.644Z,69.80
2019-01-17T14:52:56.244Z,23.60
2019-01-17T14:55:23.871Z,39.73
2019-01-17T14:57:51.415Z,34.50
2019-01-17T15:00:20.156Z,34.03
2019-01-17T15:02:48.137Z,14.63
2019-01-17T15:05:15.749Z,20.70
2019-01-17T15:07:43.402Z,59.57
2019-01-17T15:10:15.182Z,36.60
2019-01-17T15:12:42.785Z,20.87
2019-01-17T15:15:10.397Z,30.20
2019-01-17T15:17:38.004Z,41.60
2019-01-17T15:20:07.199Z,50.23
2019-01-17T15:22:35.102Z,21.03
2019-01-17T15:25:02.681Z,34.80
2019-01-17T15:27:30.626Z,35.27
2019-01-17T15:29:58.165Z,29.27
2019-01-17T15:32:25.755Z,26.00
2019-01-17T15:34:53.354Z,17.53
2019-01-17T15:37:20.951Z,26.43
2019-01-17T15:39:48.572Z,17.73
2019-01-17T15:42:16.184Z,21.27
2019-01-17T15:44:43.787Z,16.60
2019-01-17T15:47:13.246Z,16.83
2019-01-17T15:49:41.064Z,25.00
2019-01-17T15:52:08.641Z,9.47
2019-01-17T15:54:36.221Z,23.20
2019-01-17T15:57:04.223Z,12.37
2019-01-17T15:59:32.374Z,13.13
2019-01-17T16:01:59.982Z,17.73
2019-01-17T16:04:27.991Z,15.30
2019-01-17T16:06:56.042Z,21.73
2019-01-17T16:09:23.642Z,15.43
2019-01-17T16:11:52.009Z,16.27
2019-01-17T16:14:19.587Z,15.43
2019-01-17T16:16:48.395Z,17.00
2019-01-17T16:19:15.956Z,14.97
2019-01-17T16:21:43.982Z,11.77
2019-01-17T16:24:12.073Z,7.63
2019-01-17T16:26:39.686Z,13.70
2019-01-17T16:29:07.636Z,13.37
2019-01-17T16:31:35.758Z,16.90
2019-01-17T16:34:03.702Z,15.80
2019-01-17T16:36:31.277Z,11.93
2019-01-17T16:38:59.339Z,11.83
2019-01-17T16:41:26.924Z,13.97
2019-01-17T16:43:54.529Z,9.13
2019-01-17T16:46:22.232Z,15.00
2019-01-17T16:48:49.796Z,10.67
2019-01-17T16:51:17.404Z,11.43
2019-01-17T16:53:45.011Z,12.77
2019-01-17T16:56:12.934Z,10.27
2019-01-17T16:58:40.573Z,12.70
2019-01-17T17:01:08.582Z,10.70
2019-01-17T17:03:36.129Z,15.33
2019-01-17T17:06:03.669Z,9.10
2019-01-17T17:08:31.684Z,8.27
2019-01-17T17:10:59.256Z,20.73
2019-01-17T17:13:26.943Z,7.53
2019-01-17T17:15:55.001Z,13.97
2019-01-17T17:18:22.536Z,8.50
2019-01-17T17:20:50.459Z,7.03
2019-01-17T17:23:18.073Z,16.17
2019-01-17T17:25:46.059Z,26.10
2019-01-17T17:28:13.641Z,19.10
2019-01-17T17:30:41.720Z,19.83
2019-01-17T17:33:09.284Z,25.37
2019-01-17T17:35:36.925Z,9.83
2019-01-17T17:38:05.946Z,19.70
2019-01-17T17:40:33.487Z,14.43
2019-01-17T17:43:01.207Z,61.80
2019-01-17T17:45:28.890Z,22.57
2019-01-17T17:47:56.521Z,37.80
2019-01-17T17:50:24.428Z,14.27
2019-01-17T17:52:52.053Z,17.17
2019-01-17T17:55:19.751Z,19.83
2019-01-17T17:57:47.734Z,18.33
2019-01-17T18:00:18.836Z,12.57
2019-01-17T18:02:47.162Z,7.70
2019-01-17T18:05:14.803Z,21.93
2019-01-17T18:07:42.348Z,39.67
2019-01-17T18:10:14.137Z,14.93
2019-01-17T18:12:42.481Z,18.43
2019-01-17T18:15:11.458Z,14.50
2019-01-17T18:17:39.381Z,17.47
2019-01-17T18:20:08.428Z,18.00
2019-01-17T18:22:35.971Z,22.57
2019-01-17T18:25:04.556Z,20.43
2019-01-17T18:27:32.588Z,10.30
2019-01-17T18:30:00.217Z,10.67
2019-01-17T18:32:27.863Z,28.93
2019-01-17T18:34:55.821Z,11.20
2019-01-17T18:37:23.934Z,12.23
2019-01-17T18:39:51.578Z,16.17
2019-01-17T18:42:19.682Z,14.03
2019-01-17T18:44:47.609Z,12.00
2019-01-17T18:47:15.527Z,13.27
2019-01-17T18:49:43.457Z,13.70
2019-01-17T18:52:11.639Z,9.40
2019-01-17T18:54:39.316Z,9.93
2019-01-17T18:57:06.900Z,11.10
2019-01-17T18:59:34.832Z,11.37
2019-01-17T19:02:02.475Z,348.43
2019-01-17T19:04:30.040Z,27.30
2019-01-17T19:06:57.601Z,178.50
2019-01-17T19:09:25.251Z,22.97
2019-01-17T19:11:52.840Z,47.90
2019-01-17T19:14:20.501Z,23.53
2019-01-17T19:16:48.570Z,24.80
2019-01-17T19:19:16.164Z,21.47
2019-01-17T19:21:43.861Z,75.67
2019-01-17T19:24:11.437Z,36.87
2019-01-17T19:26:39.087Z,28.07
2019-01-17T19:29:06.773Z,17.97
2019-01-17T19:31:34.317Z,13.33
2019-01-17T19:34:02.420Z,19.60
2019-01-17T19:36:30.151Z,15.47
2019-01-17T19:38:59.718Z,17.17
2019-01-17T19:41:27.297Z,16.97
2019-01-17T19:43:54.968Z,19.77
2019-01-17T19:46:22.626Z,14.87
2019-01-17T19:48:50.536Z,73.77
2019-01-17T19:51:18.272Z,17.37
2019-01-17T19:53:45.828Z,18.93
2019-01-17T19:56:13.477Z,21.87
2019-01-17T19:58:41.504Z,17.17
2019-01-17T20:01:10.357Z,23.87
2019-01-17T20:03:38.294Z,17.03
2019-01-17T20:06:05.912Z,15.17
2019-01-17T20:08:33.565Z,17.73
2019-01-17T20:11:01.608Z,19.00
2019-01-17T20:13:29.229Z,16.53
2019-01-17T20:15:57.309Z,16.77
2019-01-17T20:18:25.322Z,18.67
2019-01-17T20:20:52.946Z,16.70
2019-01-17T20:23:20.525Z,16.97
2019-01-17T20:25:48.783Z,17.13
2019-01-17T20:28:16.381Z,16.37
2019-01-17T20:30:44.011Z,20.80
2019-01-17T20:33:11.668Z,73.13
2019-01-17T20:35:39.278Z,30.07
2019-01-17T20:38:06.828Z,26.40
2019-01-17T20:40:34.488Z,32.17
2019-01-17T20:43:02.048Z,36.20
2019-01-17T20:45:29.943Z,26.13
2019-01-17T20:47:57.568Z,26.30
2019-01-17T20:50:26.797Z,21.37
2019-01-17T20:52:54.373Z,21.07
2019-01-17T20:55:22.041Z,19.20
2019-01-17T20:57:50.724Z,18.83
2019-01-17T21:00:20.289Z,18.60
2019-01-17T21:02:47.876Z,20.13
2019-01-17T21:05:15.618Z,23.47
2019-01-17T21:07:43.235Z,25.53
2019-01-17T21:10:14.820Z,22.20
2019-01-17T21:12:42.436Z,52.07
2019-01-17T21:15:10.575Z,60.53
2019-01-17T21:17:38.604Z,22.67
2019-01-17T21:20:07.736Z,33.00
2019-01-17T21:22:35.365Z,23.53
2019-01-17T21:25:03.055Z,16.57
2019-01-17T21:27:30.666Z,19.83
2019-01-17T21:29:58.277Z,24.80
2019-01-17T21:32:25.902Z,19.10
2019-01-17T21:34:53.854Z,94.23
2019-01-17T21:37:21.896Z,28.50
2019-01-17T21:39:49.518Z,29.80
2019-01-17T21:42:17.449Z,26.93
2019-01-17T21:44:45.114Z,31.07
2019-01-17T21:47:40.866Z,17.93
2019-01-17T21:50:10.235Z,26.50
2019-01-17T21:52:37.797Z,17.53
2019-01-17T21:55:06.646Z,15.67
2019-01-17T21:57:34.578Z,16.03
2019-01-17T22:00:02.169Z,32.97
2019-01-17T22:02:31.009Z,16.77
2019-01-17T22:05:03.872Z,16.97
2019-01-17T22:07:32.552Z,18.53
2019-01-17T22:10:01.723Z,14.93
2019-01-17T22:12:35.325Z,20.47
2019-01-17T22:15:03.520Z,15.73
2019-01-17T22:17:31.126Z,17.27
2019-01-17T22:20:00.414Z,12.87
2019-01-17T22:22:28.954Z,25.27
2019-01-17T22:24:57.021Z,16.20
2019-01-17T22:27:24.873Z,16.73
2019-01-17T22:29:52.752Z,11.10
2019-01-17T22:32:20.312Z,12.63
2019-01-17T22:34:47.929Z,11.63
2019-01-17T22:37:15.940Z,11.40
2019-01-17T22:39:43.981Z,15.77
2019-01-17T22:42:11.866Z,11.67
2019-01-17T22:44:39.927Z,12.30
2019-01-17T22:47:09.227Z,10.00
2019-01-17T22:49:40.245Z,10.00
2019-01-17T22:52:07.819Z,8.60
2019-01-17T22:54:35.720Z,9.33
2019-01-17T22:57:03.313Z,6.93
2019-01-17T22:59:30.923Z,5.70
2019-01-17T23:01:58.561Z,5.77
2019-01-17T23:04:26.476Z,5.87
2019-01-17T23:06:54.554Z,11.73
2019-01-17T23:09:22.648Z,8.17
2019-01-17T23:11:50.813Z,9.80
2019-01-17T23:14:18.741Z,7.63
2019-01-17T23:16:46.385Z,8.67
2019-01-17T23:19:13.932Z,7.67
2019-01-17T23:21:41.531Z,6.37
2019-01-17T23:24:09.415Z,7.60
2019-01-17T23:26:37.069Z,6.50
2019-01-17T23:29:04.920Z,5.63
2019-01-17T23:31:32.622Z,5.40
2019-01-17T23:34:00.567Z,5.23
2019-01-17T23:36:28.124Z,3.27
2019-01-17T23:38:56.690Z,3.17
2019-01-17T23:41:24.252Z,3.47
2019-01-17T23:43:51.879Z,2.50
2019-01-17T23:46:19.438Z,3.10
2019-01-17T23:48:47.121Z,2.90
2019-01-17T23:51:14.651Z,3.10
2019-01-17T23:53:42.452Z,2.83
2019-01-17T23:56:10.023Z,2.97
2019-01-17T23:58:37.965Z,2.10
